Time;durP1;ratioP1;P1;durP2;ratioP2;P2;SDS_P1;SDS_P2;PMS_P1;PMS_P2;Temp;Humidity;BMP_temperature;BMP_pressure;BME280_temperature;BME280_humidity;BME280_pressure;Samples;Min_cycle;Max_cycle;Signal;HPM_P1;HPM_P2
2022/09/12 00:01:07;;;;;;;9.10;5.77;;;11.40;99.90;;;;;;5004508;28;20447;-60
2022/09/12 00:03:33;;;;;;;19.17;6.93;;;11.40;99.90;;;;;;5000991;28;20187;-60
2022/09/12 00:05:59;;;;;;;13.07;6.60;;;11.40;99.90;;;;;;5001733;28;20427;-60
2022/09/12 00:08:24;;;;;;;7.50;6.30;;;11.40;99.90;;;;;;5012163;28;20171;-60
2022/09/12 00:10:50;;;;;;;9.80;6.90;;;11.40;99.90;;;;;;5008451;28;20197;-60
2022/09/12 00:13:16;;;;;;;10.37;7.00;;;11.40;99.90;;;;;;5010291;28;20184;-61
2022/09/12 00:15:43;;;;;;;9.33;6.87;;;11.40;99.90;;;;;;5006277;28;20235;-60
2022/09/12 00:18:13;;;;;;;8.30;6.53;;;11.40;99.90;;;;;;5007037;28;20181;-60
2022/09/12 00:20:43;;;;;;;9.30;5.90;;;11.40;99.90;;;;;;5008050;28;20458;-60
2022/09/12 00:23:09;;;;;;;6.10;5.50;;;11.40;99.90;;;;;;5009508;28;20490;-60
2022/09/12 00:25:43;;;;;;;8.03;5.50;;;11.40;99.90;;;;;;5006147;28;20431;-60
2022/09/12 00:28:09;;;;;;;5.97;5.13;;;11.40;99.90;;;;;;5005512;28;22385;-60
2022/09/12 00:30:42;;;;;;;12.60;4.90;;;11.30;99.90;;;;;;5005392;28;20470;-61
2022/09/12 00:33:09;;;;;;;6.80;4.90;;;11.30;99.90;;;;;;5008960;28;20859;-60
2022/09/12 00:35:44;;;;;;;7.77;5.40;;;11.30;99.90;;;;;;5006607;28;20446;-61
2022/09/12 00:38:14;;;;;;;5.10;4.60;;;11.30;99.90;;;;;;5009460;28;20434;-61
2022/09/12 00:40:40;;;;;;;33.50;6.50;;;11.30;99.90;;;;;;5009042;28;20475;-61
2022/09/12 00:43:14;;;;;;;5.80;5.13;;;11.30;99.90;;;;;;5009412;28;20466;-61
2022/09/12 00:45:41;;;;;;;22.20;7.73;;;11.20;99.90;;;;;;5009521;28;20466;-60
2022/09/12 00:48:22;;;;;;;10.10;5.53;;;11.20;99.90;;;;;;5003529;28;20467;-60
2022/09/12 00:50:48;;;;;;;38.80;6.53;;;11.20;99.90;;;;;;5002394;28;20904;-61
2022/09/12 00:53:14;;;;;;;7.20;4.70;;;11.20;99.90;;;;;;5003401;28;20432;-61
2022/09/12 00:55:44;;;;;;;8.37;5.67;;;11.10;99.90;;;;;;5006295;28;20530;-60
2022/09/12 00:58:20;;;;;;;10.40;5.00;;;11.10;99.90;;;;;;5008133;28;20260;-60
2022/09/12 01:00:46;;;;;;;15.97;5.93;;;11.10;99.90;;;;;;5006955;28;20957;-61
2022/09/12 01:03:15;;;;;;;16.03;5.97;;;11.10;99.90;;;;;;5006667;28;20485;-61
2022/09/12 01:06:10;;;;;;;26.93;5.07;;;11.10;99.90;;;;;;5005595;28;20234;-61
2022/09/12 01:08:37;;;;;;;24.37;5.97;;;11.00;99.90;;;;;;4992312;28;20831;-61
2022/09/12 01:11:04;;;;;;;6.13;5.10;;;11.00;99.90;;;;;;5006402;28;20450;-60
2022/09/12 01:13:33;;;;;;;23.33;6.10;;;11.00;99.90;;;;;;5008377;28;20467;-61
2022/09/12 01:15:58;;;;;;;13.97;5.60;;;11.00;99.90;;;;;;5004301;28;20439;-61
2022/09/12 01:18:32;;;;;;;5.53;4.97;;;10.90;99.90;;;;;;5006798;28;20424;-60
2022/09/12 01:21:20;;;;;;;7.70;5.10;;;10.80;99.90;;;;;;5006512;28;20761;-60
2022/09/12 01:24:12;;;;;;;21.07;5.40;;;10.80;99.90;;;;;;5007228;28;20513;-61
2022/09/12 01:26:46;;;;;;;17.40;6.20;;;10.80;99.90;;;;;;5007727;28;20462;-60
2022/09/12 01:29:30;;;;;;;14.20;6.27;;;10.80;99.90;;;;;;5007113;28;20494;-60
2022/09/12 01:32:29;;;;;;;26.17;6.60;;;10.80;99.90;;;;;;5010672;28;20439;-60
2022/09/12 01:35:22;;;;;;;15.53;5.80;;;10.80;99.90;;;;;;5000562;28;20478;-60
2022/09/12 01:37:52;;;;;;;12.60;5.43;;;10.80;99.90;;;;;;5003790;28;20795;-60
2022/09/12 01:40:43;;;;;;;43.50;5.77;;;10.70;99.90;;;;;;5002125;28;20487;-61
2022/09/12 01:43:21;;;;;;;6.30;5.70;;;10.70;99.90;;;;;;5003342;28;20444;-61
2022/09/12 01:45:59;;;;;;;7.07;5.10;;;10.70;99.90;;;;;;5031481;22;20485;-58
2022/09/12 01:48:59;;;;;;;19.03;5.13;;;10.70;99.90;;;;;;5001909;28;20958;-57
2022/09/12 01:51:35;;;;;;;6.30;5.07;;;10.70;99.90;;;;;;5003262;28;20490;-58
2022/09/12 01:54:12;;;;;;;40.40;5.97;;;10.70;99.90;;;;;;5013803;28;20480;-58
2022/09/12 01:56:40;;;;;;;28.07;6.10;;;10.70;99.90;;;;;;4987541;28;20446;-58
2022/09/12 01:59:32;;;;;;;6.47;4.80;;;10.70;99.90;;;;;;4984590;28;20452;-57
2022/09/12 02:02:09;;;;;;;31.33;5.63;;;10.60;99.90;;;;;;4987206;28;20589;-57
2022/09/12 02:04:41;;;;;;;16.97;4.67;;;10.60;99.90;;;;;;4989088;28;20464;-57
2022/09/12 02:07:15;;;;;;;20.27;4.90;;;10.60;99.90;;;;;;4984218;28;20449;-57
2022/09/12 02:09:50;;;;;;;11.53;5.13;;;10.60;99.90;;;;;;4997625;28;20522;-57
2022/09/12 02:12:20;;;;;;;37.43;6.13;;;10.60;99.90;;;;;;4987384;28;20451;-57
2022/09/12 02:14:52;;;;;;;6.60;5.20;;;10.60;99.90;;;;;;4991223;28;20989;-56
2022/09/12 02:17:29;;;;;;;33.93;5.47;;;10.50;99.90;;;;;;4992613;28;20435;-57
2022/09/12 02:20:01;;;;;;;6.07;5.00;;;10.40;99.90;;;;;;4985499;28;20440;-56
2022/09/12 02:22:30;;;;;;;6.67;5.60;;;10.40;99.90;;;;;;4984550;28;20490;-59
2022/09/12 02:25:01;;;;;;;13.00;6.43;;;10.40;99.90;;;;;;4997238;28;20443;-59
2022/09/12 02:27:26;;;;;;;6.30;5.57;;;10.40;99.90;;;;;;4981958;28;20443;-57
2022/09/12 02:29:52;;;;;;;9.70;6.50;;;10.50;99.90;;;;;;4986774;28;20511;-58
2022/09/12 02:32:29;;;;;;;24.63;6.70;;;10.50;99.90;;;;;;4981990;28;20188;-57
2022/09/12 02:35:00;;;;;;;17.77;7.50;;;10.50;99.90;;;;;;4979632;28;20506;-58
2022/09/12 02:38:04;;;;;;;27.53;8.60;;;10.50;99.90;;;;;;4985277;28;20431;-58
2022/09/12 02:40:31;;;;;;;6.50;5.80;;;10.50;99.90;;;;;;4997010;28;20430;-59
2022/09/12 02:42:57;;;;;;;11.50;6.33;;;10.50;99.90;;;;;;4988249;28;20424;-59
2022/09/12 02:45:23;;;;;;;18.07;6.90;;;10.50;99.90;;;;;;4991731;28;20469;-58
2022/09/12 02:47:55;;;;;;;65.50;9.23;;;10.50;99.90;;;;;;4986518;28;20264;-58
2022/09/12 02:50:21;;;;;;;11.73;7.17;;;10.40;99.90;;;;;;4985495;28;20668;-58
2022/09/12 02:52:47;;;;;;;12.77;7.70;;;10.40;99.90;;;;;;4978220;28;20473;-58
2022/09/12 02:55:14;;;;;;;16.00;7.37;;;10.40;99.90;;;;;;4986305;28;20782;-59
2022/09/12 02:57:40;;;;;;;104.37;11.83;;;10.40;99.90;;;;;;4985578;28;20806;-58
2022/09/12 03:00:07;;;;;;;98.73;11.20;;;10.40;99.90;;;;;;4987271;28;20536;-59
2022/09/12 03:03:03;;;;;;;30.23;8.63;;;10.30;99.90;;;;;;4990328;28;20683;-59
2022/09/12 03:05:57;;;;;;;52.73;10.00;;;10.20;99.90;;;;;;4977197;28;20483;-58
2022/09/12 03:08:32;;;;;;;25.83;8.37;;;10.20;99.90;;;;;;4982098;28;20922;-58
2022/09/12 03:11:08;;;;;;;29.37;7.17;;;10.20;99.90;;;;;;4986777;28;20449;-58
2022/09/12 03:14:03;;;;;;;47.33;7.80;;;10.10;99.90;;;;;;4982470;28;20447;-58
2022/09/12 03:16:38;;;;;;;36.60;7.53;;;10.20;99.90;;;;;;4985729;28;20444;-58
2022/09/12 03:19:38;;;;;;;17.43;6.50;;;10.10;99.90;;;;;;4991850;28;20415;-58
2022/09/12 03:22:31;;;;;;;7.77;6.17;;;10.10;99.90;;;;;;4973717;28;20580;-59
2022/09/12 03:25:09;;;;;;;31.60;7.70;;;10.10;99.90;;;;;;4981340;28;20542;-58
2022/09/12 03:27:53;;;;;;;21.90;7.63;;;10.10;99.90;;;;;;4986701;28;20547;-58
2022/09/12 03:30:19;;;;;;;10.63;7.30;;;10.10;99.90;;;;;;4997411;28;20692;-60
2022/09/12 03:32:53;;;;;;;21.83;6.70;;;10.00;99.90;;;;;;4997895;28;20994;-58
2022/09/12 03:35:21;;;;;;;21.73;6.63;;;10.00;99.90;;;;;;4991204;28;20208;-58
2022/09/12 03:37:48;;;;;;;12.10;5.93;;;10.00;99.90;;;;;;4998068;28;20933;-58
2022/09/12 03:40:14;;;;;;;6.67;5.97;;;10.00;99.90;;;;;;4989501;28;20749;-58
2022/09/12 03:42:40;;;;;;;14.23;5.90;;;10.00;99.90;;;;;;4997246;28;20431;-59
2022/09/12 03:45:06;;;;;;;8.87;5.90;;;10.00;99.90;;;;;;4995638;28;21096;-59
2022/09/12 03:47:32;;;;;;;45.47;6.90;;;10.00;99.90;;;;;;4998744;28;20798;-59
2022/09/12 03:49:57;;;;;;;23.90;7.60;;;10.00;99.90;;;;;;4995201;28;20432;-58
2022/09/12 03:52:23;;;;;;;6.70;5.47;;;10.00;99.90;;;;;;4985220;28;20181;-59
2022/09/12 03:54:49;;;;;;;9.43;5.57;;;10.00;99.90;;;;;;4977962;28;20299;-58
2022/09/12 03:57:15;;;;;;;14.50;5.70;;;10.00;99.90;;;;;;4982308;28;20184;-59
2022/09/12 03:59:40;;;;;;;28.57;5.83;;;9.90;99.90;;;;;;4982092;28;20192;-58
2022/09/12 04:02:06;;;;;;;42.23;6.90;;;10.00;99.90;;;;;;4982760;28;20431;-60
2022/09/12 04:04:32;;;;;;;29.70;5.83;;;10.00;99.90;;;;;;4986809;28;20570;-57
2022/09/12 04:06:57;;;;;;;9.90;6.80;;;10.00;99.90;;;;;;4984570;28;20177;-56
2022/09/12 04:09:23;;;;;;;16.50;8.07;;;10.00;99.90;;;;;;4988120;28;20697;-59
2022/09/12 04:11:49;;;;;;;11.50;7.27;;;10.00;99.90;;;;;;4987588;28;20686;-59
2022/09/12 04:14:14;;;;;;;11.67;7.30;;;10.00;99.90;;;;;;4986760;28;20259;-58
2022/09/12 04:16:40;;;;;;;13.10;7.40;;;10.00;99.90;;;;;;4984930;28;20224;-59
2022/09/12 04:19:05;;;;;;;16.00;7.93;;;10.00;99.90;;;;;;4990381;28;20175;-59
2022/09/12 04:21:31;;;;;;;29.07;9.40;;;10.00;99.90;;;;;;4985982;28;20178;-57
2022/09/12 04:23:57;;;;;;;27.40;10.00;;;10.00;99.90;;;;;;4982110;28;20240;-57
2022/09/12 04:26:22;;;;;;;38.60;12.70;;;10.00;99.90;;;;;;4982599;28;20196;-58
2022/09/12 04:28:53;;;;;;;25.87;10.37;;;10.00;99.90;;;;;;4983724;28;20276;-58
2022/09/12 04:31:22;;;;;;;18.63;9.83;;;10.00;99.90;;;;;;4986526;28;20182;-58
2022/09/12 04:33:54;;;;;;;14.60;8.50;;;10.00;99.90;;;;;;4992535;28;20462;-58
2022/09/12 04:36:21;;;;;;;18.70;7.60;;;10.00;99.90;;;;;;4984556;28;20459;-57
2022/09/12 04:38:47;;;;;;;26.33;7.10;;;9.90;99.90;;;;;;4979842;28;20859;-56
2022/09/12 04:41:16;;;;;;;47.40;7.40;;;9.90;99.90;;;;;;4985590;28;20452;-58
2022/09/12 04:43:45;;;;;;;12.73;6.20;;;9.90;99.90;;;;;;4995400;28;20177;-58
2022/09/12 04:46:11;;;;;;;17.53;8.77;;;9.80;99.90;;;;;;4978248;28;20533;-59
2022/09/12 04:48:38;;;;;;;19.50;8.17;;;9.70;99.90;;;;;;4983305;28;20927;-58
2022/09/12 04:51:15;;;;;;;10.27;6.17;;;9.70;99.90;;;;;;4986637;28;20459;-59
2022/09/12 04:53:42;;;;;;;6.33;5.73;;;9.70;99.90;;;;;;4988736;28;21250;-58
2022/09/12 04:56:10;;;;;;;10.00;5.20;;;9.70;99.90;;;;;;4991624;28;20475;-59
2022/09/12 04:58:36;;;;;;;10.67;5.13;;;9.70;99.90;;;;;;4984978;28;20558;-58
2022/09/12 05:01:05;;;;;;;12.90;5.60;;;9.70;99.90;;;;;;4982833;28;20433;-59
2022/09/12 05:03:31;;;;;;;15.17;5.43;;;9.70;99.90;;;;;;4989378;28;21045;-58
2022/09/12 05:05:56;;;;;;;41.83;7.23;;;9.60;99.90;;;;;;4990575;28;20452;-58
2022/09/12 05:08:22;;;;;;;20.10;5.77;;;9.60;99.90;;;;;;4989783;28;20460;-58
2022/09/12 05:10:48;;;;;;;20.87;6.07;;;9.50;99.90;;;;;;4986032;28;20188;-58
2022/09/12 05:13:13;;;;;;;14.80;5.33;;;9.50;99.90;;;;;;4985414;28;20243;-58
2022/09/12 05:15:39;;;;;;;7.57;5.40;;;9.40;99.90;;;;;;4988241;28;20712;-58
2022/09/12 05:18:05;;;;;;;24.20;8.50;;;9.40;99.90;;;;;;5000390;28;20652;-58
2022/09/12 05:20:32;;;;;;;28.90;8.50;;;9.40;99.90;;;;;;4987034;28;20173;-57
2022/09/12 05:22:58;;;;;;;20.20;7.93;;;9.40;99.90;;;;;;4986148;28;20178;-58
2022/09/12 05:25:24;;;;;;;33.33;9.70;;;9.50;99.90;;;;;;4990620;28;20496;-59
2022/09/12 05:27:53;;;;;;;31.77;10.30;;;9.50;99.90;;;;;;4993613;28;20788;-58
2022/09/12 05:30:18;;;;;;;37.77;11.70;;;9.50;99.90;;;;;;4981689;28;21002;-59
2022/09/12 05:32:44;;;;;;;43.57;10.93;;;9.50;99.90;;;;;;4983417;28;20498;-57
2022/09/12 05:35:10;;;;;;;24.17;9.83;;;9.60;99.90;;;;;;4985267;28;22149;-58
2022/09/12 05:37:36;;;;;;;21.70;9.23;;;9.60;99.90;;;;;;4985491;28;20193;-59
2022/09/12 05:40:06;;;;;;;24.83;10.30;;;9.60;99.90;;;;;;4997096;28;20498;-59
2022/09/12 05:42:32;;;;;;;46.40;13.80;;;9.60;99.90;;;;;;4999755;28;20173;-59
2022/09/12 05:44:57;;;;;;;43.77;11.20;;;9.60;99.90;;;;;;4988430;28;20468;-58
2022/09/12 05:47:23;;;;;;;99.90;13.23;;;9.60;99.90;;;;;;4989786;28;20172;-58
2022/09/12 05:49:51;;;;;;;34.63;10.13;;;9.70;99.90;;;;;;4978016;28;20383;-59
2022/09/12 05:52:16;;;;;;;19.80;7.70;;;9.70;99.90;;;;;;4989372;28;20683;-59
2022/09/12 05:54:42;;;;;;;13.33;7.27;;;9.70;99.90;;;;;;4979076;28;20555;-59
2022/09/12 05:57:08;;;;;;;80.17;11.20;;;9.70;99.90;;;;;;4983377;28;20305;-59
2022/09/12 05:59:33;;;;;;;75.27;11.13;;;9.70;99.90;;;;;;4989219;28;20208;-58
2022/09/12 06:01:59;;;;;;;18.20;7.27;;;9.80;99.90;;;;;;4994586;28;20177;-59
2022/09/12 06:04:25;;;;;;;55.77;7.37;;;9.70;99.90;;;;;;4990936;28;20208;-57
2022/09/12 06:06:51;;;;;;;38.87;5.53;;;9.70;99.90;;;;;;4994126;28;20175;-59
2022/09/12 06:09:17;;;;;;;11.00;4.07;;;9.70;99.90;;;;;;4987445;28;20452;-59
2022/09/12 06:11:44;;;;;;;24.77;4.80;;;9.70;99.90;;;;;;4987718;28;20288;-59
2022/09/12 06:14:11;;;;;;;8.50;4.23;;;9.70;99.90;;;;;;4993876;28;21019;-59
2022/09/12 06:16:38;;;;;;;6.77;4.10;;;9.70;99.90;;;;;;4988502;28;20794;-60
2022/09/12 06:19:07;;;;;;;5.53;4.60;;;9.70;99.90;;;;;;4986039;28;20439;-59
2022/09/12 06:21:36;;;;;;;6.47;5.00;;;9.80;99.90;;;;;;4996688;28;20435;-60
2022/09/12 06:24:02;;;;;;;6.43;5.50;;;9.80;99.90;;;;;;4987486;28;20444;-59
2022/09/12 06:26:28;;;;;;;6.77;4.70;;;9.80;99.90;;;;;;4986010;28;20545;-59
2022/09/12 06:28:55;;;;;;;5.20;4.50;;;9.90;99.90;;;;;;4991688;28;20188;-60
2022/09/12 06:31:28;;;;;;;8.33;5.13;;;9.90;99.90;;;;;;5005407;28;20423;-59
2022/09/12 06:33:55;;;;;;;7.53;5.07;;;10.00;99.90;;;;;;4980279;28;20896;-58
2022/09/12 06:36:41;;;;;;;8.40;5.17;;;10.00;99.90;;;;;;4986359;28;20452;-59
2022/09/12 06:39:10;;;;;;;16.80;4.13;;;10.10;99.90;;;;;;4995673;28;20497;-59
2022/09/12 06:41:36;;;;;;;8.20;4.00;;;10.20;99.90;;;;;;4993600;28;20863;-59
2022/09/12 06:44:02;;;;;;;5.60;3.63;;;10.20;99.90;;;;;;4988565;28;20437;-58
2022/09/12 06:46:29;;;;;;;3.80;3.43;;;10.20;99.90;;;;;;4987295;28;20251;-59
2022/09/12 06:48:56;;;;;;;20.23;4.60;;;10.30;99.90;;;;;;4991373;28;20443;-59
2022/09/12 06:51:22;;;;;;;10.70;5.67;;;10.40;99.90;;;;;;4985904;28;20480;-58
2022/09/12 06:53:48;;;;;;;6.70;6.00;;;10.40;99.90;;;;;;4994678;28;20468;-59
2022/09/12 06:56:22;;;;;;;22.70;6.80;;;10.40;99.90;;;;;;4984451;28;20197;-58
2022/09/12 06:58:49;;;;;;;15.03;6.67;;;10.50;99.90;;;;;;4986545;28;20923;-59
2022/09/12 07:01:15;;;;;;;21.13;5.40;;;10.50;99.90;;;;;;4994958;28;20432;-59
2022/09/12 07:03:42;;;;;;;11.90;5.67;;;10.50;99.90;;;;;;4988408;28;20505;-59
2022/09/12 07:06:13;;;;;;;31.03;10.53;;;10.50;99.90;;;;;;4998385;28;20192;-59
2022/09/12 07:08:39;;;;;;;26.70;11.80;;;10.60;99.90;;;;;;4991743;28;20428;-59
2022/09/12 07:11:19;;;;;;;91.53;9.43;;;10.60;99.90;;;;;;4996644;28;20430;-59
2022/09/12 07:13:47;;;;;;;29.90;5.53;;;10.70;99.90;;;;;;4990918;28;20450;-59
2022/09/12 07:16:13;;;;;;;4.90;3.87;;;10.70;99.90;;;;;;5006911;28;20443;-57
2022/09/12 07:18:39;;;;;;;8.93;4.30;;;10.70;99.90;;;;;;4992799;28;20478;-57
2022/09/12 07:21:09;;;;;;;3.83;3.53;;;10.70;99.90;;;;;;4991358;28;20424;-57
2022/09/12 07:23:34;;;;;;;13.97;4.50;;;10.70;99.90;;;;;;4985937;28;20437;-57
2022/09/12 07:26:01;;;;;;;4.43;3.60;;;10.80;99.90;;;;;;4988827;28;20456;-56
2022/09/12 07:28:29;;;;;;;3.77;3.30;;;10.90;99.90;;;;;;4982691;28;20241;-57
2022/09/12 07:30:55;;;;;;;3.20;3.00;;;11.00;99.90;;;;;;4994665;28;20518;-58
2022/09/12 07:33:27;;;;;;;3.30;3.00;;;11.10;99.90;;;;;;4979640;28;20531;-58
2022/09/12 07:35:53;;;;;;;4.67;3.10;;;11.20;99.90;;;;;;4994877;28;21163;-57
2022/09/12 07:38:19;;;;;;;4.03;3.50;;;11.30;99.90;;;;;;4976573;28;20425;-58
2022/09/12 07:40:45;;;;;;;8.43;6.17;;;11.40;99.90;;;;;;4984857;28;20428;-57
2022/09/12 07:43:11;;;;;;;7.60;6.80;;;11.50;99.90;;;;;;4989120;28;20423;-58
2022/09/12 07:45:40;;;;;;;10.20;6.10;;;11.70;99.90;;;;;;4989760;28;20212;-57
2022/09/12 07:48:06;;;;;;;9.37;7.20;;;11.80;99.90;;;;;;4996550;28;20435;-58
2022/09/12 07:50:32;;;;;;;10.40;7.37;;;11.90;99.90;;;;;;4989172;28;20436;-57
2022/09/12 07:52:58;;;;;;;8.13;6.93;;;12.00;99.90;;;;;;4981807;28;20443;-58
2022/09/12 07:55:23;;;;;;;13.67;7.30;;;12.10;99.90;;;;;;4987666;28;20267;-58
2022/09/12 07:57:50;;;;;;;10.90;8.50;;;12.20;99.90;;;;;;4985323;28;20181;-58
2022/09/12 08:00:16;;;;;;;10.30;8.27;;;12.40;99.90;;;;;;4998479;22;20229;-61
2022/09/12 08:02:42;;;;;;;9.77;7.60;;;12.50;99.90;;;;;;4985830;28;20438;-61
2022/09/12 08:05:08;;;;;;;9.73;7.00;;;12.60;99.90;;;;;;4991851;28;20436;-61
2022/09/12 08:07:34;;;;;;;7.13;6.47;;;12.70;99.90;;;;;;4989215;28;20178;-61
2022/09/12 08:09:59;;;;;;;6.80;6.10;;;12.90;99.90;;;;;;4988519;28;21029;-61
2022/09/12 08:12:26;;;;;;;7.20;6.20;;;13.00;99.90;;;;;;4986214;28;20184;-61
2022/09/12 08:14:52;;;;;;;8.20;6.47;;;13.10;99.90;;;;;;4988332;28;20258;-61
2022/09/12 08:17:18;;;;;;;7.50;6.00;;;13.20;99.90;;;;;;4987553;28;20431;-62
2022/09/12 08:19:43;;;;;;;6.50;5.80;;;13.30;99.90;;;;;;4986944;28;20703;-62
2022/09/12 08:22:10;;;;;;;8.40;5.87;;;13.50;99.90;;;;;;4982976;28;20699;-62
2022/09/12 08:24:38;;;;;;;9.00;6.53;;;13.60;99.90;;;;;;4986783;28;20268;-62
2022/09/12 08:27:04;;;;;;;11.03;6.60;;;13.70;99.90;;;;;;4989380;28;20444;-62
2022/09/12 08:29:29;;;;;;;9.57;6.97;;;13.80;99.90;;;;;;4993194;28;20525;-62
2022/09/12 08:31:55;;;;;;;7.50;5.80;;;14.00;99.90;;;;;;4997740;28;20440;-62
2022/09/12 08:34:20;;;;;;;11.67;6.00;;;14.20;99.90;;;;;;5002216;28;20621;-62
2022/09/12 08:36:46;;;;;;;8.83;5.17;;;14.30;99.90;;;;;;4991000;28;20177;-62
2022/09/12 08:39:13;;;;;;;8.33;4.10;;;14.40;99.90;;;;;;4991091;28;20190;-62
2022/09/12 08:42:00;;;;;;;5.93;4.23;;;14.60;99.90;;;;;;4990987;28;20471;-61
2022/09/12 08:44:38;;;;;;;5.90;3.83;;;14.80;99.90;;;;;;4991886;28;20455;-62
2022/09/12 08:47:16;;;;;;;4.57;3.67;;;14.90;99.90;;;;;;4989145;28;20454;-62
2022/09/12 08:50:03;;;;;;;4.63;3.30;;;15.10;99.90;;;;;;4989404;28;20839;-62
2022/09/12 08:52:57;;;;;;;4.70;2.87;;;15.40;99.90;;;;;;4990430;28;20458;-62
2022/09/12 08:55:29;;;;;;;4.73;2.87;;;15.60;99.90;;;;;;4985973;28;20460;-62
2022/09/12 08:57:56;;;;;;;2.53;2.33;;;15.70;99.90;;;;;;4999360;28;20428;-62
2022/09/12 09:00:22;;;;;;;3.20;2.83;;;15.90;99.90;;;;;;4990888;28;20456;-61
2022/09/12 09:03:03;;;;;;;6.30;3.43;;;16.00;99.90;;;;;;4985506;28;20428;-62
2022/09/12 09:05:58;;;;;;;6.57;2.90;;;16.20;99.90;;;;;;4985663;28;20441;-62
2022/09/12 09:08:40;;;;;;;6.53;2.90;;;16.40;99.90;;;;;;4994556;28;20449;-62
2022/09/12 09:11:16;;;;;;;4.33;2.40;;;16.60;99.90;;;;;;4997166;28;20435;-62
2022/09/12 09:16:56;;;;;;;4.10;3.47;;;16.90;99.90;;;;;;4981878;28;20436;-61
2022/09/12 09:19:29;;;;;;;5.30;4.17;;;17.10;99.90;;;;;;4988536;28;20487;-60
2022/09/12 09:22:26;;;;;;;4.00;3.10;;;17.20;99.90;;;;;;4990205;28;20436;-60
2022/09/12 09:24:58;;;;;;;6.20;2.90;;;17.30;99.90;;;;;;4959219;28;20460;-60
2022/09/12 09:27:42;;;;;;;3.67;2.57;;;17.40;99.90;;;;;;4989744;28;20471;-62
2022/09/12 09:30:17;;;;;;;6.60;2.80;;;17.50;99.90;;;;;;5005190;28;20439;-62
2022/09/12 09:32:47;;;;;;;3.20;2.50;;;17.60;99.90;;;;;;4984035;28;20524;-61
2022/09/12 09:35:31;;;;;;;2.53;2.20;;;17.80;99.90;;;;;;4988801;28;20534;-61
2022/09/12 09:38:15;;;;;;;3.10;2.50;;;17.90;99.80;;;;;;4991286;28;21194;-61
2022/09/12 09:41:10;;;;;;;4.60;2.33;;;18.10;98.20;;;;;;5000694;28;20436;-61
2022/09/12 09:43:37;;;;;;;2.33;2.13;;;18.30;97.50;;;;;;4986456;28;20432;-61
2022/09/12 09:46:03;;;;;;;3.00;2.13;;;18.50;90.40;;;;;;4995104;28;20705;-60
2022/09/12 09:48:37;;;;;;;1.70;1.60;;;18.60;77.50;;;;;;4980569;28;20971;-62
2022/09/12 09:51:06;;;;;;;3.00;1.60;;;18.70;80.40;;;;;;4980126;28;20180;-61
2022/09/12 09:53:50;;;;;;;1.70;1.60;;;18.80;78.00;;;;;;4982668;28;20903;-61
2022/09/12 09:56:36;;;;;;;2.73;1.63;;;18.90;79.60;;;;;;4985912;28;20811;-61
2022/09/12 09:59:27;;;;;;;2.20;1.33;;;19.20;75.70;;;;;;4949349;28;1095405;-58
2022/09/12 10:02:02;;;;;;;2.97;2.50;;;19.40;73.90;;;;;;4991689;28;20274;-61
2022/09/12 10:04:40;;;;;;;1.20;1.10;;;19.50;71.00;;;;;;4984461;28;20440;-61
2022/09/12 10:07:16;;;;;;;2.30;1.10;;;19.70;66.10;;;;;;4987479;28;20441;-62
2022/09/12 10:09:42;;;;;;;1.53;1.20;;;19.80;61.00;;;;;;4981394;28;20474;-63
2022/09/12 10:12:27;;;;;;;2.63;1.20;;;19.90;58.90;;;;;;4985942;28;20553;-64
2022/09/12 10:15:02;;;;;;;3.00;1.70;;;19.90;60.50;;;;;;4990837;28;20464;-64
2022/09/12 10:17:31;;;;;;;2.67;1.20;;;20.10;62.20;;;;;;4993174;28;20424;-63
2022/09/12 10:19:57;;;;;;;4.97;1.00;;;20.20;61.30;;;;;;4997856;28;20538;-61
2022/09/12 10:22:26;;;;;;;1.77;1.37;;;20.30;61.00;;;;;;4998412;28;20530;-63
2022/09/12 10:24:57;;;;;;;1.40;1.20;;;20.30;59.40;;;;;;4985092;28;20428;-64
2022/09/12 10:27:31;;;;;;;1.33;1.23;;;20.40;59.80;;;;;;4986413;28;20436;-64
2022/09/12 10:30:04;;;;;;;1.73;1.20;;;20.60;61.40;;;;;;4983552;28;20915;-65
2022/09/12 10:32:41;;;;;;;2.20;1.40;;;20.70;61.40;;;;;;4987649;28;20444;-63
2022/09/12 10:35:20;;;;;;;1.30;1.20;;;20.80;59.90;;;;;;4988429;28;21288;-63
2022/09/12 10:38:10;;;;;;;1.50;1.10;;;21.00;58.70;;;;;;4994964;28;20435;-62
2022/09/12 10:40:41;;;;;;;1.53;1.43;;;21.10;56.80;;;;;;4990242;28;20545;-62
2022/09/12 10:43:24;;;;;;;1.50;1.20;;;21.20;57.10;;;;;;4985869;28;20500;-63
2022/09/12 10:45:49;;;;;;;1.50;1.37;;;21.20;57.80;;;;;;4987314;28;20429;-64
2022/09/12 10:48:29;;;;;;;1.27;1.00;;;21.30;57.30;;;;;;4989489;28;20420;-63
2022/09/12 10:50:55;;;;;;;1.30;1.10;;;21.40;53.10;;;;;;4978779;28;20288;-62
2022/09/12 10:53:25;;;;;;;1.60;1.50;;;21.40;54.50;;;;;;4992711;28;20463;-63
2022/09/12 10:56:06;;;;;;;2.47;1.30;;;21.50;54.50;;;;;;4983814;28;20546;-62
2022/09/12 10:58:56;;;;;;;2.10;1.20;;;21.60;54.00;;;;;;4987494;28;20424;-60
2022/09/12 11:01:40;;;;;;;1.10;1.00;;;21.80;53.60;;;;;;4988914;28;20991;-62
2022/09/12 11:04:31;;;;;;;1.73;0.90;;;21.90;53.70;;;;;;4999805;28;20464;-63
2022/09/12 11:07:20;;;;;;;1.40;1.30;;;22.00;52.80;;;;;;4988777;28;20427;-63
2022/09/12 11:09:52;;;;;;;1.27;1.00;;;22.00;51.90;;;;;;4982007;28;20464;-60
2022/09/12 11:12:36;;;;;;;2.10;0.93;;;22.10;50.00;;;;;;4990050;28;20432;-60
2022/09/12 11:15:29;;;;;;;2.00;1.10;;;22.20;51.00;;;;;;4985288;28;20994;-60
2022/09/12 11:18:32;;;;;;;4.17;1.20;;;22.20;50.30;;;;;;4986274;28;20563;-61
2022/09/12 11:21:24;;;;;;;1.40;1.30;;;22.40;51.10;;;;;;4983309;28;20421;-61
2022/09/12 11:24:01;;;;;;;1.67;1.10;;;22.60;51.00;;;;;;4988961;28;20436;-61
2022/09/12 11:26:48;;;;;;;1.00;0.90;;;22.70;51.00;;;;;;4996717;28;20450;-61
2022/09/12 11:29:26;;;;;;;1.50;1.27;;;22.80;49.80;;;;;;4980593;28;20458;-61
2022/09/12 11:32:29;;;;;;;3.10;1.20;;;23.00;50.30;;;;;;4985671;28;20481;-61
2022/09/12 11:35:04;;;;;;;0.87;0.87;;;23.20;49.40;;;;;;4984826;28;20568;-59
2022/09/12 11:37:54;;;;;;;1.70;1.03;;;23.30;47.20;;;;;;4985652;28;20435;-59
2022/09/12 11:40:48;;;;;;;0.87;0.80;;;23.50;47.80;;;;;;4988431;28;20578;-59
2022/09/12 11:43:47;;;;;;;2.67;1.20;;;23.50;47.30;;;;;;4985918;28;20850;-59
2022/09/12 11:46:26;;;;;;;1.13;1.00;;;23.60;47.20;;;;;;4984248;28;20432;-60
2022/09/12 11:49:14;;;;;;;3.83;1.20;;;23.60;46.60;;;;;;4985635;28;20452;-59
2022/09/12 11:51:55;;;;;;;1.30;1.10;;;23.70;48.50;;;;;;4980860;28;20436;-60
2022/09/12 11:54:23;;;;;;;1.20;0.93;;;23.80;48.60;;;;;;4984626;28;20817;-60
2022/09/12 11:57:11;;;;;;;1.30;1.10;;;23.90;49.30;;;;;;4986880;28;21039;-62
2022/09/12 11:59:49;;;;;;;1.13;1.10;;;24.00;49.20;;;;;;4988184;28;21001;-63
2022/09/12 12:02:26;;;;;;;1.20;1.10;;;24.10;48.50;;;;;;4989327;28;20478;-60
2022/09/12 12:05:13;;;;;;;1.30;1.20;;;24.30;49.40;;;;;;4984479;28;20464;-60
2022/09/12 12:07:55;;;;;;;2.30;1.13;;;24.50;50.30;;;;;;4998800;28;20511;-60
2022/09/12 12:10:37;;;;;;;1.27;1.03;;;24.70;49.90;;;;;;4983174;28;20543;-59
2022/09/12 12:13:16;;;;;;;2.33;1.37;;;24.90;49.90;;;;;;4983338;28;21098;-60
2022/09/12 12:15:49;;;;;;;2.40;1.23;;;25.10;49.80;;;;;;4981905;28;20970;-60
2022/09/12 12:18:20;;;;;;;1.20;1.10;;;25.20;49.00;;;;;;4981105;28;20494;-62
2022/09/12 12:20:47;;;;;;;1.37;1.03;;;25.20;48.50;;;;;;4978373;28;20542;-60
2022/09/12 12:24:04;;;;;;;1.50;1.40;;;25.30;47.40;;;;;;4981260;28;20447;-60
2022/09/12 12:26:56;;;;;;;3.17;1.37;;;25.30;47.40;;;;;;4960239;28;20470;-59
2022/09/12 12:29:22;;;;;;;3.70;1.60;;;25.40;46.90;;;;;;4981139;28;20459;-60
2022/09/12 12:32:18;;;;;;;1.50;1.40;;;25.50;46.90;;;;;;4983080;28;20993;-60
2022/09/12 12:34:46;;;;;;;1.07;1.00;;;25.70;46.80;;;;;;4979286;28;20275;-59
2022/09/12 12:37:17;;;;;;;2.43;1.30;;;25.80;47.50;;;;;;4984844;28;20435;-60
2022/09/12 12:39:49;;;;;;;1.47;1.10;;;25.80;45.10;;;;;;4983515;28;20444;-59
2022/09/12 12:42:38;;;;;;;1.90;1.23;;;25.90;47.00;;;;;;4981459;28;20432;-60
2022/09/12 12:45:07;;;;;;;1.53;0.97;;;26.10;47.00;;;;;;4974490;28;20448;-57
2022/09/12 12:47:45;;;;;;;3.43;1.10;;;26.20;45.80;;;;;;4983050;28;20431;-57
2022/09/12 12:50:24;;;;;;;1.00;0.90;;;26.30;44.70;;;;;;4985172;28;20513;-57
2022/09/12 12:52:55;;;;;;;1.37;1.00;;;26.40;44.10;;;;;;4978454;28;20443;-57
2022/09/12 12:56:00;;;;;;;1.43;0.90;;;26.20;43.00;;;;;;4979493;28;20502;-57
2022/09/12 12:58:35;;;;;;;2.93;1.10;;;26.00;43.70;;;;;;4981795;28;20434;-57
2022/09/12 13:01:17;;;;;;;2.20;0.97;;;26.00;45.50;;;;;;4986255;28;20439;-56
2022/09/12 13:03:59;;;;;;;2.13;1.20;;;26.30;46.60;;;;;;4977628;28;20524;-57
2022/09/12 13:06:33;;;;;;;2.03;1.07;;;26.50;45.30;;;;;;4978258;28;20437;-57
2022/09/12 13:09:27;;;;;;;1.20;1.10;;;26.60;43.40;;;;;;4980306;28;20459;-57
2022/09/12 13:12:18;;;;;;;1.40;1.30;;;26.80;43.40;;;;;;4980818;28;20483;-59
2022/09/12 13:14:54;;;;;;;3.37;1.30;;;27.00;42.20;;;;;;4975974;28;20574;-56
2022/09/12 13:17:49;;;;;;;5.50;1.07;;;27.00;42.10;;;;;;4982968;28;20454;-57